Time;durP1;ratioP1;P1;durP2;ratioP2;P2;SDS_P1;SDS_P2;PMS_P1;PMS_P2;Temp;Humidity;BMP_temperature;BMP_pressure;BME280_temperature;BME280_humidity;BME280_pressure;Samples;Min_cycle;Max_cycle;Signal;HPM_P1;HPM_P2
2021/06/20 00:01:55;;;;;;;23.13;20.63;;;20.80;99.90;;;;;;5035515;28;20073;-75
2021/06/20 00:04:22;;;;;;;24.50;19.85;;;20.70;99.90;;;;;;5036011;28;20045;-75
2021/06/20 00:06:51;;;;;;;22.42;19.92;;;20.70;99.90;;;;;;5035137;28;20064;-75
2021/06/20 00:09:20;;;;;;;20.90;18.75;;;20.80;99.90;;;;;;5035419;28;20046;-75
2021/06/20 00:11:48;;;;;;;21.70;19.40;;;20.80;99.90;;;;;;5035452;28;20045;-74
2021/06/20 00:14:15;;;;;;;24.02;20.20;;;20.80;99.90;;;;;;5035821;28;20468;-74
2021/06/20 00:16:42;;;;;;;23.00;18.80;;;20.70;99.90;;;;;;5034932;28;20049;-75
2021/06/20 00:19:09;;;;;;;21.45;19.27;;;20.70;99.90;;;;;;5035339;28;20054;-75
2021/06/20 00:21:37;;;;;;;23.23;19.70;;;20.70;99.90;;;;;;5034918;28;20053;-75
2021/06/20 00:24:06;;;;;;;25.15;18.80;;;20.80;99.90;;;;;;5035020;28;20050;-75
2021/06/20 00:26:33;;;;;;;23.40;19.83;;;20.70;99.90;;;;;;5034562;28;20068;-74
2021/06/20 00:29:00;;;;;;;24.20;20.17;;;20.70;99.90;;;;;;5035304;28;20099;-74
2021/06/20 00:31:26;;;;;;;25.17;21.42;;;20.60;99.90;;;;;;5035145;28;20076;-75
2021/06/20 00:33:53;;;;;;;27.73;23.77;;;20.40;99.90;;;;;;5035326;28;20103;-75
2021/06/20 00:36:19;;;;;;;22.33;20.02;;;20.30;99.90;;;;;;5034625;28;20046;-75
2021/06/20 00:38:46;;;;;;;24.30;21.52;;;20.40;99.90;;;;;;5034910;28;20065;-74
2021/06/20 00:41:14;;;;;;;22.60;20.25;;;20.40;99.90;;;;;;5034750;28;20041;-74
2021/06/20 00:43:41;;;;;;;23.88;20.77;;;20.30;99.90;;;;;;5035231;28;20073;-74
2021/06/20 00:46:09;;;;;;;24.83;20.92;;;20.30;99.90;;;;;;5034521;28;20057;-75
2021/06/20 00:48:36;;;;;;;23.38;20.20;;;20.20;99.90;;;;;;5034968;28;20061;-74
2021/06/20 00:51:02;;;;;;;23.50;20.23;;;20.30;99.90;;;;;;5034537;28;20041;-75
2021/06/20 00:53:29;;;;;;;23.33;20.35;;;20.30;99.90;;;;;;5034574;28;20045;-75
2021/06/20 00:55:58;;;;;;;20.58;18.38;;;20.30;99.90;;;;;;5034484;28;20045;-75
2021/06/20 00:58:27;;;;;;;21.35;18.63;;;20.20;99.90;;;;;;5034357;28;20099;-75
2021/06/20 01:00:54;;;;;;;22.20;19.73;;;20.20;99.90;;;;;;5034388;28;20391;-75
2021/06/20 01:03:20;;;;;;;23.55;19.70;;;20.30;99.90;;;;;;5034692;28;20045;-75
2021/06/20 01:05:47;;;;;;;23.20;20.33;;;20.40;99.90;;;;;;5033977;28;20064;-74
2021/06/20 01:08:15;;;;;;;21.90;19.20;;;20.40;99.90;;;;;;5034220;28;20096;-74
2021/06/20 01:10:42;;;;;;;20.48;17.95;;;20.50;99.90;;;;;;5034022;28;20551;-74
2021/06/20 01:13:25;;;;;;;22.77;19.35;;;20.40;99.90;;;;;;5034471;28;20108;-74
2021/06/20 01:15:55;;;;;;;24.10;20.10;;;20.40;99.90;;;;;;5034091;28;20096;-74
2021/06/20 01:18:21;;;;;;;22.60;20.20;;;20.40;99.90;;;;;;5032585;28;20049;-75
2021/06/20 01:20:48;;;;;;;23.08;20.60;;;20.30;99.90;;;;;;5033950;28;20069;-75
2021/06/20 01:23:16;;;;;;;21.58;19.33;;;20.20;99.90;;;;;;5034315;28;20485;-74
2021/06/20 01:25:44;;;;;;;27.42;20.73;;;20.20;99.90;;;;;;5034011;28;20076;-74
2021/06/20 01:28:12;;;;;;;21.35;19.15;;;20.10;99.90;;;;;;5033985;28;20042;-74
2021/06/20 01:30:43;;;;;;;22.55;20.13;;;20.10;99.90;;;;;;5033567;28;20580;-74
2021/06/20 01:33:11;;;;;;;21.42;19.23;;;20.10;99.90;;;;;;5034110;28;20073;-74
2021/06/20 01:35:39;;;;;;;25.00;20.05;;;20.10;99.90;;;;;;5034182;28;20041;-74
2021/06/20 01:38:08;;;;;;;21.00;18.67;;;20.10;99.90;;;;;;5033478;28;20046;-76
2021/06/20 01:40:36;;;;;;;21.27;19.20;;;20.10;99.90;;;;;;5025248;28;20497;-75
2021/06/20 01:43:03;;;;;;;24.05;19.50;;;20.00;99.90;;;;;;5033897;28;20493;-76
2021/06/20 01:45:31;;;;;;;22.40;20.05;;;20.10;99.90;;;;;;5032906;28;20045;-75
2021/06/20 01:48:00;;;;;;;28.20;21.65;;;20.10;99.90;;;;;;5033736;28;20050;-75
2021/06/20 01:50:27;;;;;;;26.38;22.30;;;20.10;99.90;;;;;;5033268;28;20410;-74
2021/06/20 01:53:02;;;;;;;22.42;19.42;;;20.10;99.90;;;;;;5033587;28;20406;-75
2021/06/20 01:55:29;;;;;;;21.75;19.10;;;20.20;99.90;;;;;;5033092;28;20049;-74
2021/06/20 01:57:57;;;;;;;26.40;20.05;;;20.20;99.90;;;;;;5034584;28;20444;-75
2021/06/20 02:00:24;;;;;;;21.75;19.45;;;20.20;99.90;;;;;;5033206;28;20051;-74
2021/06/20 02:02:51;;;;;;;25.80;21.30;;;20.20;99.90;;;;;;5033625;28;20050;-75
2021/06/20 02:05:18;;;;;;;24.88;20.65;;;20.10;99.90;;;;;;5033663;28;20049;-75
2021/06/20 02:07:44;;;;;;;22.73;20.02;;;19.90;99.90;;;;;;5032747;28;20045;-74
2021/06/20 02:10:13;;;;;;;23.75;20.08;;;19.90;99.90;;;;;;5032048;28;20041;-75
2021/06/20 02:12:40;;;;;;;24.40;20.38;;;19.80;99.90;;;;;;5032985;28;20045;-75
2021/06/20 02:15:11;;;;;;;27.15;20.30;;;19.90;99.90;;;;;;5025566;28;20099;-75
2021/06/20 02:17:39;;;;;;;31.17;26.40;;;19.90;99.90;;;;;;5032561;28;20046;-74
2021/06/20 02:20:08;;;;;;;41.42;31.80;;;19.80;99.90;;;;;;5033281;28;20077;-75
2021/06/20 02:22:35;;;;;;;26.08;20.55;;;19.80;99.90;;;;;;5033161;28;20103;-75
2021/06/20 02:25:03;;;;;;;28.67;22.25;;;19.80;99.90;;;;;;5032787;28;20627;-75
2021/06/20 02:27:30;;;;;;;28.20;22.25;;;19.80;99.90;;;;;;5032751;28;20115;-75
2021/06/20 02:29:57;;;;;;;31.67;22.30;;;19.80;99.90;;;;;;5033451;28;20072;-76
2021/06/20 02:32:30;;;;;;;25.50;21.08;;;19.80;99.90;;;;;;5032972;28;20053;-75
2021/06/20 02:35:07;;;;;;;26.60;20.50;;;19.80;99.90;;;;;;5032962;28;20049;-74
2021/06/20 02:37:34;;;;;;;23.73;20.25;;;19.90;99.90;;;;;;5032305;28;20547;-74
2021/06/20 02:40:01;;;;;;;24.42;20.17;;;19.90;99.90;;;;;;5032728;28;20045;-74
2021/06/20 02:42:28;;;;;;;23.23;20.27;;;19.90;99.90;;;;;;5032814;28;20672;-75
2021/06/20 02:44:54;;;;;;;24.45;20.55;;;19.90;99.90;;;;;;5033008;28;20053;-75
2021/06/20 02:47:21;;;;;;;25.17;21.15;;;19.80;99.90;;;;;;5032291;28;20497;-76
2021/06/20 02:49:49;;;;;;;22.35;19.30;;;19.70;99.90;;;;;;5032393;28;20115;-75
2021/06/20 02:52:16;;;;;;;24.80;20.42;;;19.70;99.90;;;;;;5032571;28;20041;-75
2021/06/20 02:54:50;;;;;;;26.25;20.00;;;19.70;99.90;;;;;;5032653;28;20075;-74
2021/06/20 02:57:18;;;;;;;25.77;20.92;;;19.70;99.90;;;;;;5032317;28;20067;-75
2021/06/20 02:59:44;;;;;;;24.67;20.20;;;19.70;99.90;;;;;;5032773;28;20053;-76
2021/06/20 03:02:11;;;;;;;21.63;19.35;;;19.80;99.90;;;;;;5032424;28;20053;-75
2021/06/20 03:04:38;;;;;;;31.42;20.27;;;19.90;99.90;;;;;;5032304;28;20470;-74
2021/06/20 03:07:06;;;;;;;25.23;20.15;;;19.90;99.90;;;;;;5032805;28;20551;-75
2021/06/20 03:09:34;;;;;;;22.13;19.52;;;19.90;99.90;;;;;;5032282;28;20119;-75
2021/06/20 03:12:01;;;;;;;23.83;21.27;;;19.90;99.90;;;;;;5032487;28;20077;-73
2021/06/20 03:14:28;;;;;;;24.30;20.48;;;19.80;99.90;;;;;;5033200;28;20509;-75
2021/06/20 03:16:54;;;;;;;23.65;20.05;;;19.70;99.90;;;;;;5033559;28;20045;-75
2021/06/20 03:19:21;;;;;;;25.35;21.77;;;19.50;99.90;;;;;;5033843;28;20119;-75
2021/06/20 03:21:48;;;;;;;28.83;21.73;;;19.30;99.90;;;;;;5032921;28;20049;-75
2021/06/20 03:24:16;;;;;;;26.05;23.25;;;19.30;99.90;;;;;;5033268;28;20058;-74
2021/06/20 03:26:43;;;;;;;27.20;23.67;;;19.30;99.90;;;;;;5033911;28;20111;-74
2021/06/20 03:29:09;;;;;;;27.25;22.10;;;19.30;99.90;;;;;;5033596;28;20049;-75
2021/06/20 03:31:36;;;;;;;28.25;22.88;;;19.30;99.90;;;;;;5033387;28;20041;-74
2021/06/20 03:34:03;;;;;;;25.63;21.23;;;19.50;99.90;;;;;;5032731;28;20042;-74
2021/06/20 03:36:30;;;;;;;26.17;22.23;;;19.70;99.90;;;;;;5033122;28;20103;-75
2021/06/20 03:38:56;;;;;;;26.38;19.83;;;19.80;99.90;;;;;;5032425;28;20076;-75
2021/06/20 03:41:24;;;;;;;22.40;20.00;;;20.00;99.90;;;;;;5033154;28;20050;-75
2021/06/20 03:43:52;;;;;;;26.23;20.50;;;20.10;99.90;;;;;;5032830;28;20099;-75
2021/06/20 03:46:19;;;;;;;26.95;21.65;;;20.10;99.90;;;;;;5032564;28;20088;-73
2021/06/20 03:48:46;;;;;;;28.30;22.27;;;20.00;99.90;;;;;;5032270;28;20050;-73
2021/06/20 03:51:13;;;;;;;24.98;22.25;;;19.90;99.90;;;;;;5031746;28;20069;-74
2021/06/20 03:53:40;;;;;;;27.35;21.60;;;19.90;99.90;;;;;;5031707;28;20041;-74
2021/06/20 03:56:07;;;;;;;24.40;21.80;;;19.90;99.90;;;;;;5031262;28;20050;-74
2021/06/20 03:58:36;;;;;;;26.50;21.73;;;19.90;99.90;;;;;;5031663;28;20476;-75
2021/06/20 04:01:04;;;;;;;27.77;20.73;;;20.00;99.90;;;;;;5031745;28;20037;-75
2021/06/20 04:03:32;;;;;;;26.35;21.20;;;20.00;99.90;;;;;;5032369;28;20390;-74
2021/06/20 04:05:58;;;;;;;24.83;21.55;;;20.00;99.90;;;;;;5031331;28;20053;-74
2021/06/20 04:08:25;;;;;;;26.33;21.00;;;20.00;99.90;;;;;;5031462;28;20049;-75
2021/06/20 04:10:52;;;;;;;29.02;22.13;;;20.10;99.90;;;;;;5031925;28;20053;-75
2021/06/20 04:13:18;;;;;;;26.73;22.90;;;20.20;99.90;;;;;;5031561;28;20049;-74
2021/06/20 04:15:46;;;;;;;27.60;21.45;;;20.20;99.90;;;;;;5031325;28;20111;-74
2021/06/20 04:18:13;;;;;;;24.45;21.30;;;20.30;99.90;;;;;;5031165;28;20046;-75
2021/06/20 04:20:39;;;;;;;22.05;19.35;;;20.50;99.90;;;;;;5031677;28;20115;-75
2021/06/20 04:23:07;;;;;;;21.77;19.05;;;20.60;99.90;;;;;;5031573;28;20041;-75
2021/06/20 04:25:33;;;;;;;21.05;18.80;;;20.70;99.90;;;;;;5030996;28;20046;-75
2021/06/20 04:28:00;;;;;;;25.45;22.10;;;20.80;99.90;;;;;;5031506;28;20111;-75
2021/06/20 04:30:27;;;;;;;23.00;20.02;;;20.90;99.90;;;;;;5031766;28;20045;-75
2021/06/20 04:32:55;;;;;;;26.88;22.35;;;21.10;99.90;;;;;;5027182;28;20497;-74
2021/06/20 04:35:23;;;;;;;34.00;29.10;;;21.30;99.90;;;;;;5034878;28;20053;-75
2021/06/20 04:37:51;;;;;;;34.15;28.05;;;21.50;99.90;;;;;;5035141;28;20052;-75
2021/06/20 04:40:19;;;;;;;20.98;18.85;;;21.60;99.90;;;;;;5034709;28;20053;-75
2021/06/20 04:42:56;;;;;;;21.27;18.98;;;21.60;99.90;;;;;;5034914;28;20051;-75
2021/06/20 04:45:25;;;;;;;24.10;19.83;;;21.70;99.90;;;;;;5034777;28;20136;-75
2021/06/20 04:47:52;;;;;;;36.00;27.10;;;21.80;99.90;;;;;;5034928;28;20071;-75
2021/06/20 04:50:20;;;;;;;27.40;23.73;;;21.90;99.90;;;;;;5034738;28;20098;-76
2021/06/20 04:52:47;;;;;;;23.48;20.85;;;22.10;99.90;;;;;;5034776;28;20045;-75
2021/06/20 04:55:16;;;;;;;23.58;20.38;;;22.30;99.90;;;;;;5034890;28;20049;-73
2021/06/20 04:57:51;;;;;;;22.67;19.50;;;22.40;99.90;;;;;;5034491;28;20045;-72
2021/06/20 05:00:18;;;;;;;26.27;21.33;;;22.60;99.90;;;;;;4996080;28;20052;-75
2021/06/20 05:02:48;;;;;;;27.30;22.00;;;22.90;99.90;;;;;;5035930;28;20050;-77
2021/06/20 05:05:17;;;;;;;26.08;22.17;;;23.10;99.90;;;;;;5038354;28;20507;-79
2021/06/20 05:07:45;;;;;;;24.00;21.55;;;23.20;99.90;;;;;;5034723;28;20111;-75
2021/06/20 05:10:12;;;;;;;24.60;22.05;;;23.30;99.90;;;;;;5034708;28;20045;-75
2021/06/20 05:12:39;;;;;;;24.40;22.13;;;23.40;99.90;;;;;;5034634;28;20072;-72
2021/06/20 05:15:07;;;;;;;23.95;21.10;;;23.50;99.90;;;;;;5033833;28;20042;-76
2021/06/20 05:17:34;;;;;;;25.30;22.77;;;23.60;99.90;;;;;;5034263;28;20045;-73
2021/06/20 05:20:01;;;;;;;23.60;21.25;;;23.70;99.90;;;;;;5034009;28;20132;-76
2021/06/20 05:22:28;;;;;;;24.02;21.73;;;23.80;99.90;;;;;;5034492;28;20136;-75
2021/06/20 05:24:55;;;;;;;25.17;22.55;;;24.00;99.90;;;;;;5034911;28;20045;-72
2021/06/20 05:27:22;;;;;;;27.55;24.65;;;24.10;99.90;;;;;;5034288;28;20555;-70
2021/06/20 05:29:49;;;;;;;24.27;21.77;;;24.20;99.90;;;;;;5033999;28;20091;-70
2021/06/20 05:32:15;;;;;;;26.40;23.83;;;24.40;99.90;;;;;;5033855;28;20100;-75
2021/06/20 05:34:42;;;;;;;27.58;24.45;;;24.50;99.90;;;;;;5034163;28;20593;-74
2021/06/20 05:37:09;;;;;;;26.13;23.58;;;24.60;99.90;;;;;;5033778;28;20102;-72
2021/06/20 05:39:35;;;;;;;23.30;21.10;;;24.70;99.90;;;;;;5034198;28;20046;-71
2021/06/20 05:42:04;;;;;;;24.27;21.90;;;24.80;99.90;;;;;;5034028;28;20088;-69
2021/06/20 05:44:30;;;;;;;24.92;22.65;;;24.90;99.90;;;;;;5032530;28;20049;-74
2021/06/20 05:46:58;;;;;;;24.48;21.98;;;25.00;99.90;;;;;;5032784;28;20444;-72
2021/06/20 05:49:24;;;;;;;25.50;21.95;;;25.10;99.90;;;;;;5033469;28;20045;-72
2021/06/20 05:51:51;;;;;;;25.08;22.58;;;25.20;99.90;;;;;;5033170;28;20049;-72
2021/06/20 05:54:17;;;;;;;25.35;22.85;;;25.40;99.90;;;;;;5033722;28;20100;-71
2021/06/20 05:56:44;;;;;;;23.23;20.80;;;25.60;99.90;;;;;;5033218;28;20444;-71
2021/06/20 05:59:12;;;;;;;24.17;21.85;;;25.60;99.90;;;;;;5033493;28;20452;-71
2021/06/20 06:01:39;;;;;;;24.08;21.55;;;25.70;99.90;;;;;;5038331;28;20080;-70
2021/06/20 06:04:05;;;;;;;24.15;21.30;;;25.70;99.90;;;;;;5038429;28;20057;-72
2021/06/20 06:06:32;;;;;;;23.02;20.92;;;25.90;99.90;;;;;;5033996;28;20047;-71
2021/06/20 06:08:59;;;;;;;24.48;22.17;;;26.10;99.90;;;;;;5033497;28;20049;-72
2021/06/20 06:11:26;;;;;;;23.92;21.50;;;26.20;99.90;;;;;;5033256;28;20500;-72
2021/06/20 06:13:53;;;;;;;28.85;25.75;;;26.40;99.90;;;;;;5033693;28;20046;-72
2021/06/20 06:16:21;;;;;;;24.33;22.02;;;26.40;99.90;;;;;;5033413;28;20049;-72
2021/06/20 06:18:47;;;;;;;24.35;22.08;;;26.50;99.90;;;;;;5033402;28;20096;-72
2021/06/20 06:21:14;;;;;;;22.88;20.63;;;26.40;99.90;;;;;;5033227;28;20045;-72
2021/06/20 06:23:42;;;;;;;24.00;21.67;;;26.50;99.90;;;;;;5033529;28;20071;-72
2021/06/20 06:26:08;;;;;;;24.85;22.10;;;26.70;99.90;;;;;;5032959;28;20049;-72
2021/06/20 06:28:36;;;;;;;24.13;21.67;;;26.90;99.90;;;;;;5033007;28;20049;-72
2021/06/20 06:31:02;;;;;;;22.55;20.25;;;27.10;99.90;;;;;;5033027;28;20045;-72
2021/06/20 06:33:30;;;;;;;23.63;21.20;;;27.10;99.90;;;;;;5033145;28;20119;-72
2021/06/20 06:35:57;;;;;;;23.30;21.20;;;27.10;99.90;;;;;;5032897;28;20046;-72
2021/06/20 06:38:24;;;;;;;27.10;23.27;;;27.10;99.90;;;;;;5033073;28;20505;-72
2021/06/20 06:40:50;;;;;;;23.15;20.90;;;27.00;99.90;;;;;;5033045;28;20049;-73
2021/06/20 06:43:17;;;;;;;31.35;23.75;;;27.10;99.90;;;;;;5036090;28;20052;-72
2021/06/20 06:45:44;;;;;;;23.80;21.42;;;27.40;99.90;;;;;;5032950;28;20535;-73
2021/06/20 06:48:10;;;;;;;23.42;21.30;;;27.50;99.90;;;;;;5033568;28;20045;-72
2021/06/20 06:50:40;;;;;;;24.02;21.50;;;27.50;99.90;;;;;;5032941;28;20480;-72
2021/06/20 06:53:06;;;;;;;21.48;19.63;;;27.60;99.90;;;;;;5033427;28;20041;-73
2021/06/20 06:55:33;;;;;;;25.45;22.30;;;27.90;99.90;;;;;;5032565;28;20247;-71
2021/06/20 06:58:01;;;;;;;25.25;22.77;;;28.10;99.90;;;;;;5032397;28;20066;-73
2021/06/20 07:00:28;;;;;;;25.25;22.83;;;28.50;99.90;;;;;;5032946;28;20517;-72
2021/06/20 07:02:55;;;;;;;24.25;21.95;;;28.90;99.90;;;;;;5033320;28;20052;-72
2021/06/20 07:05:30;;;;;;;24.50;22.20;;;29.10;99.90;;;;;;5032743;28;20052;-72
2021/06/20 07:07:58;;;;;;;23.17;21.08;;;29.50;99.90;;;;;;5033218;28;20128;-73
2021/06/20 07:10:25;;;;;;;24.10;21.95;;;29.60;99.90;;;;;;5032329;28;20072;-73
2021/06/20 07:12:52;;;;;;;22.63;20.67;;;29.60;99.90;;;;;;5032919;28;20046;-72
2021/06/20 07:15:18;;;;;;;21.73;19.85;;;29.60;99.90;;;;;;5032715;28;20049;-71
2021/06/20 07:17:45;;;;;;;22.95;20.65;;;29.60;99.90;;;;;;5032730;28;20045;-72
2021/06/20 07:20:16;;;;;;;21.38;19.23;;;29.30;99.90;;;;;;5032888;28;20140;-73
2021/06/20 07:22:43;;;;;;;21.33;19.20;;;29.20;99.90;;;;;;5032344;28;20086;-73
2021/06/20 07:25:13;;;;;;;19.92;18.00;;;29.40;99.90;;;;;;5032625;28;20060;-74
2021/06/20 07:27:40;;;;;;;22.00;19.73;;;29.40;99.90;;;;;;5032403;28;20053;-73
2021/06/20 07:30:09;;;;;;;20.85;19.05;;;29.60;99.90;;;;;;5032637;28;20046;-72
2021/06/20 07:32:36;;;;;;;24.25;18.70;;;30.20;99.90;;;;;;5032562;28;20042;-72
2021/06/20 07:35:03;;;;;;;19.88;18.15;;;30.40;99.90;;;;;;5032053;28;20045;-73
2021/06/20 07:37:30;;;;;;;20.13;18.23;;;30.70;99.00;;;;;;5031894;28;20091;-72
2021/06/20 07:39:57;;;;;;;20.83;18.80;;;30.90;97.20;;;;;;5031946;28;20078;-72
2021/06/20 07:42:25;;;;;;;19.08;17.45;;;30.70;97.20;;;;;;5032591;28;20054;-73
2021/06/20 07:44:52;;;;;;;22.23;20.35;;;30.80;96.90;;;;;;5012672;28;20046;-72
2021/06/20 07:47:19;;;;;;;20.98;18.98;;;30.70;95.90;;;;;;5012644;28;20049;-72
2021/06/20 07:49:45;;;;;;;19.13;17.25;;;30.80;96.30;;;;;;5012681;28;20105;-73
2021/06/20 07:52:12;;;;;;;18.73;17.02;;;31.00;95.90;;;;;;5012985;28;20061;-72
2021/06/20 07:54:42;;;;;;;19.65;18.02;;;31.20;95.20;;;;;;5012694;28;20486;-72
2021/06/20 07:57:09;;;;;;;19.80;17.90;;;31.50;95.00;;;;;;5012579;28;20046;-72
2021/06/20 07:59:37;;;;;;;21.35;19.42;;;31.50;93.80;;;;;;5032069;28;20799;-73
2021/06/20 08:02:04;;;;;;;20.02;18.20;;;31.80;93.80;;;;;;5032458;28;20464;-73
2021/06/20 08:04:31;;;;;;;19.88;17.98;;;31.80;93.20;;;;;;5032950;28;20480;-73
2021/06/20 08:06:57;;;;;;;18.67;17.08;;;32.00;92.50;;;;;;5031829;28;20099;-72
2021/06/20 08:09:24;;;;;;;17.88;16.27;;;32.10;92.00;;;;;;5034973;28;20049;-72
2021/06/20 08:11:51;;;;;;;15.65;14.23;;;32.00;92.20;;;;;;5037005;28;20042;-73
2021/06/20 08:14:19;;;;;;;17.30;15.90;;;31.40;87.60;;;;;;5035846;28;20049;-73
2021/06/20 08:16:47;;;;;;;17.85;16.30;;;31.30;90.10;;;;;;5035871;28;20050;-72
2021/06/20 08:19:14;;;;;;;16.73;15.27;;;31.10;90.30;;;;;;5036181;28;20229;-73
2021/06/20 08:21:43;;;;;;;16.00;14.68;;;31.20;91.00;;;;;;5040509;28;20042;-72
2021/06/20 08:24:10;;;;;;;16.10;14.80;;;31.20;89.90;;;;;;5036288;28;20045;-72
2021/06/20 08:26:37;;;;;;;16.63;15.23;;;31.20;90.60;;;;;;5035652;28;20631;-72
2021/06/20 08:29:04;;;;;;;16.88;15.32;;;31.30;89.40;;;;;;5035508;28;20554;-73
2021/06/20 08:31:30;;;;;;;16.33;14.98;;;31.60;88.20;;;;;;5035692;28;20049;-73
2021/06/20 08:33:58;;;;;;;15.38;14.07;;;31.90;87.10;;;;;;5035387;28;20053;-72
2021/06/20 08:36:25;;;;;;;14.65;13.40;;;32.10;86.70;;;;;;5035519;28;20532;-72
2021/06/20 08:38:52;;;;;;;14.55;13.07;;;32.60;84.80;;;;;;5035529;28;20095;-72
2021/06/20 08:41:19;;;;;;;13.43;12.40;;;32.80;84.10;;;;;;5035184;28;20072;-72
2021/06/20 08:43:46;;;;;;;13.48;12.27;;;32.70;79.40;;;;;;5035281;28;20046;-72
2021/06/20 08:46:13;;;;;;;12.98;11.80;;;33.00;80.50;;;;;;5035302;28;20379;-72
2021/06/20 08:48:39;;;;;;;11.85;11.05;;;33.00;76.60;;;;;;5035165;28;20050;-72
2021/06/20 08:51:08;;;;;;;13.45;12.35;;;33.20;76.30;;;;;;5035204;28;20045;-73
2021/06/20 08:53:34;;;;;;;12.80;11.82;;;33.60;74.30;;;;;;5035251;28;20057;-73
2021/06/20 08:56:01;;;;;;;12.00;11.00;;;34.00;72.70;;;;;;5034909;28;20053;-72
2021/06/20 08:58:30;;;;;;;12.20;11.38;;;33.50;70.50;;;;;;5035063;28;20041;-73
2021/06/20 09:00:57;;;;;;;11.27;10.38;;;33.30;69.50;;;;;;5034944;28;20541;-73
2021/06/20 09:03:24;;;;;;;11.02;10.07;;;33.20;69.10;;;;;;5034921;28;20045;-72
2021/06/20 09:05:59;;;;;;;12.10;11.10;;;33.10;69.10;;;;;;5034475;28;20045;-73
2021/06/20 09:08:28;;;;;;;12.48;11.38;;;33.30;68.50;;;;;;5034799;28;20054;-72
2021/06/20 09:10:55;;;;;;;12.70;11.70;;;33.60;68.40;;;;;;5034930;28;20092;-73
2021/06/20 09:13:22;;;;;;;11.20;10.40;;;33.70;67.60;;;;;;5035114;28;20563;-73
2021/06/20 09:16:01;;;;;;;11.88;10.57;;;34.20;66.30;;;;;;5035021;28;20042;-71
2021/06/20 09:18:28;;;;;;;11.20;10.30;;;34.60;65.80;;;;;;5034867;28;20042;-72
2021/06/20 09:20:54;;;;;;;9.07;8.40;;;34.80;62.30;;;;;;5034746;28;20053;-72
2021/06/20 09:23:21;;;;;;;10.43;9.70;;;34.20;61.20;;;;;;5034532;28;20050;-73
2021/06/20 09:25:57;;;;;;;11.05;10.25;;;34.10;63.70;;;;;;5034239;28;20041;-72
2021/06/20 09:28:32;;;;;;;10.93;9.93;;;33.90;62.70;;;;;;5026778;28;20067;-73
2021/06/20 09:31:01;;;;;;;10.15;9.35;;;34.10;63.20;;;;;;5034450;28;20472;-72
2021/06/20 09:33:30;;;;;;;11.30;10.43;;;34.40;65.80;;;;;;5034188;28;20045;-73
2021/06/20 09:35:58;;;;;;;10.93;10.07;;;34.30;61.80;;;;;;5034053;28;20041;-73
2021/06/20 09:38:26;;;;;;;9.73;8.98;;;34.50;62.50;;;;;;5033866;28;20045;-74
2021/06/20 09:41:01;;;;;;;10.20;9.30;;;34.20;59.60;;;;;;5034685;28;20049;-73
2021/06/20 09:43:27;;;;;;;10.13;9.32;;;34.00;60.40;;;;;;5034364;28;20046;-72
2021/06/20 09:45:54;;;;;;;9.65;8.98;;;34.30;59.90;;;;;;5034312;28;20092;-73
2021/06/20 09:48:22;;;;;;;9.75;8.93;;;34.40;61.60;;;;;;5034482;28;20072;-73
2021/06/20 09:50:49;;;;;;;8.90;8.10;;;34.30;59.80;;;;;;5033933;28;20463;-72
2021/06/20 09:53:16;;;;;;;10.65;9.73;;;34.30;61.40;;;;;;5034542;28;20071;-73
2021/06/20 09:55:42;;;;;;;10.98;9.88;;;34.60;59.40;;;;;;5033653;28;20099;-72
2021/06/20 09:58:10;;;;;;;11.57;10.57;;;34.70;59.70;;;;;;5034045;28;20103;-72
2021/06/20 10:00:42;;;;;;;11.40;10.60;;;34.50;60.30;;;;;;5033851;28;20053;-72
2021/06/20 10:03:21;;;;;;;12.15;11.25;;;34.50;60.10;;;;;;5033911;28;20042;-72
2021/06/20 10:05:51;;;;;;;11.95;10.95;;;34.30;60.00;;;;;;5033307;28;20045;-72
2021/06/20 10:08:17;;;;;;;11.80;10.75;;;34.70;61.60;;;;;;5033777;28;20075;-73
2021/06/20 10:10:44;;;;;;;11.77;10.82;;;35.60;58.40;;;;;;5033874;28;20100;-72
2021/06/20 10:13:12;;;;;;;11.43;10.52;;;35.30;58.70;;;;;;5033766;28;20050;-73
2021/06/20 10:15:39;;;;;;;12.65;11.40;;;35.70;57.40;;;;;;5033628;28;20420;-73
2021/06/20 10:18:10;;;;;;;10.85;10.13;;;35.40;57.80;;;;;;5033449;28;20053;-73
2021/06/20 10:20:37;;;;;;;10.32;9.52;;;36.00;56.80;;;;;;5033635;28;20081;-74
2021/06/20 10:23:05;;;;;;;10.73;9.82;;;36.80;56.50;;;;;;5033964;28;20049;-73
2021/06/20 10:25:34;;;;;;;10.63;9.68;;;37.00;55.40;;;;;;5033471;28;20049;-73
2021/06/20 10:28:05;;;;;;;9.70;8.63;;;36.70;56.80;;;;;;5033593;28;20133;-72
2021/06/20 10:30:35;;;;;;;10.50;9.25;;;36.70;54.90;;;;;;5033569;28;20045;-74
2021/06/20 10:33:08;;;;;;;10.83;10.00;;;36.50;54.20;;;;;;5035221;28;20429;-74
2021/06/20 10:35:36;;;;;;;10.43;9.00;;;35.60;55.90;;;;;;5034362;28;20301;-72
2021/06/20 10:38:04;;;;;;;10.48;9.52;;;35.00;56.90;;;;;;5034313;28;20045;-72
2021/06/20 10:40:35;;;;;;;13.20;10.05;;;34.80;58.40;;;;;;5035091;28;20042;-72
2021/06/20 10:43:16;;;;;;;9.75;8.63;;;35.10;57.20;;;;;;5034013;28;20046;-72
2021/06/20 10:45:44;;;;;;;9.65;8.88;;;35.70;57.30;;;;;;5033735;28;20049;-72
2021/06/20 10:48:16;;;;;;;9.48;8.60;;;36.70;56.80;;;;;;5033811;28;20045;-71
2021/06/20 10:50:46;;;;;;;9.52;8.75;;;37.20;53.40;;;;;;5033870;28;20050;-73
2021/06/20 10:53:12;;;;;;;9.88;9.13;;;37.60;53.10;;;;;;5034479;28;20095;-73
2021/06/20 10:55:45;;;;;;;10.25;9.25;;;36.80;53.60;;;;;;5033193;28;20054;-73
2021/06/20 10:58:20;;;;;;;9.23;8.52;;;36.90;53.80;;;;;;5033539;28;20417;-73
2021/06/20 11:00:49;;;;;;;9.55;8.82;;;36.50;53.60;;;;;;5033514;28;20053;-73
2021/06/20 11:03:22;;;;;;;11.65;10.38;;;36.70;55.30;;;;;;5033627;28;20460;-73
2021/06/20 11:05:51;;;;;;;9.98;9.10;;;37.00;53.50;;;;;;5032660;28;20053;-72
2021/06/20 11:08:43;;;;;;;11.00;10.10;;;37.10;54.30;;;;;;5032482;28;20049;-73
2021/06/20 11:11:13;;;;;;;10.70;9.80;;;37.00;53.80;;;;;;5018295;28;20058;-72
2021/06/20 11:13:42;;;;;;;10.82;9.95;;;36.70;55.00;;;;;;5032764;28;20079;-73
2021/06/20 11:16:13;;;;;;;11.25;10.13;;;36.70;54.10;;;;;;5032291;28;20438;-73
2021/06/20 11:18:39;;;;;;;11.70;10.50;;;36.50;55.60;;;;;;5033090;28;20401;-73
2021/06/20 11:21:06;;;;;;;15.48;10.60;;;36.40;55.00;;;;;;5032273;28;20493;-72
2021/06/20 11:23:33;;;;;;;11.13;10.05;;;36.70;55.40;;;;;;5032562;28;20087;-72
2021/06/20 11:26:01;;;;;;;9.98;9.07;;;36.50;53.90;;;;;;5032006;28;20142;-73
2021/06/20 11:28:29;;;;;;;11.75;10.65;;;36.60;54.00;;;;;;5032245;28;20057;-73
2021/06/20 11:31:06;;;;;;;12.10;8.98;;;36.30;54.80;;;;;;5031844;28;20541;-72
2021/06/20 11:33:34;;;;;;;10.63;9.13;;;35.90;54.90;;;;;;5032510;28;20184;-72
2021/06/20 11:36:01;;;;;;;10.18;9.02;;;36.10;55.20;;;;;;5031854;28;20041;-71
2021/06/20 11:38:32;;;;;;;8.60;7.70;;;36.60;55.60;;;;;;5032039;28;20056;-72
2021/06/20 11:41:10;;;;;;;11.13;8.30;;;36.60;53.20;;;;;;5032158;28;20053;-72
2021/06/20 11:43:40;;;;;;;10.02;8.20;;;37.40;54.20;;;;;;5033347;28;20079;-72
2021/06/20 11:46:17;;;;;;;10.68;8.52;;;37.40;52.40;;;;;;5035901;28;20045;-72
2021/06/20 11:48:53;;;;;;;12.68;8.98;;;37.70;52.60;;;;;;5036184;28;20052;-73
2021/06/20 11:51:35;;;;;;;11.48;8.32;;;37.70;51.80;;;;;;5035217;28;20045;-72
2021/06/20 11:54:19;;;;;;;13.85;8.32;;;38.00;53.10;;;;;;5015142;28;20053;-73
2021/06/20 11:56:48;;;;;;;10.95;6.60;;;38.10;51.20;;;;;;5015062;28;20050;-73
2021/06/20 11:59:15;;;;;;;9.75;7.30;;;37.40;50.50;;;;;;5014945;28;20041;-73
2021/06/20 12:01:44;;;;;;;7.80;6.97;;;36.40;52.50;;;;;;5014711;28;20549;-72
2021/06/20 12:04:14;;;;;;;9.63;7.60;;;35.90;53.40;;;;;;5015046;28;20046;-72
2021/06/20 12:06:41;;;;;;;9.10;7.90;;;36.00;53.30;;;;;;5018068;28;20056;-75
2021/06/20 12:09:10;;;;;;;10.95;8.32;;;36.40;53.10;;;;;;5034379;28;20107;-73
2021/06/20 12:11:38;;;;;;;10.15;8.25;;;37.40;52.70;;;;;;5034338;28;20048;-73
2021/06/20 12:14:05;;;;;;;14.63;8.35;;;38.00;52.30;;;;;;5034529;28;20045;-72
2021/06/20 12:16:33;;;;;;;11.55;8.02;;;37.90;50.00;;;;;;5034176;28;20041;-73
2021/06/20 12:19:00;;;;;;;9.23;5.93;;;37.70;50.60;;;;;;5034382;28;20115;-72
2021/06/20 12:21:30;;;;;;;9.77;6.35;;;37.40;50.90;;;;;;5034525;28;20045;-72
2021/06/20 12:23:58;;;;;;;9.23;6.53;;;37.00;50.80;;;;;;5034520;28;20084;-73
2021/06/20 12:26:26;;;;;;;9.60;6.35;;;37.10;50.40;;;;;;5034029;28;20049;-71
2021/06/20 12:28:53;;;;;;;9.40;6.45;;;36.40;50.10;;;;;;5034477;28;20493;-72
2021/06/20 12:31:20;;;;;;;10.00;7.15;;;36.10;51.30;;;;;;5033568;28;20045;-73
2021/06/20 12:33:46;;;;;;;10.30;7.38;;;36.20;51.60;;;;;;5034379;28;20612;-72
2021/06/20 12:36:13;;;;;;;8.55;6.97;;;36.80;52.20;;;;;;5034215;28;20045;-72